Time;durP1;ratioP1;P1;durP2;ratioP2;P2;SDS_P1;SDS_P2;PMS_P1;PMS_P2;Temp;Humidity;BMP_temperature;BMP_pressure;BME280_temperature;BME280_humidity;BME280_pressure;Samples;Min_cycle;Max_cycle;Signal;HPM_P1;HPM_P2
2020/12/10 00:00:49;;;;;;;;;;;1.30;99.90;;;;;;5034390;28;19920;-86
2020/12/10 00:03:14;;;;;;;;;;;1.30;99.90;;;;;;5034099;28;19909;-88
2020/12/10 00:05:40;;;;;;;;;;;1.30;99.90;;;;;;5034338;28;19917;-86
2020/12/10 00:08:05;;;;;;;;;;;1.30;99.90;;;;;;5034189;28;19916;-87
2020/12/10 00:10:32;;;;;;;;;;;1.30;99.90;;;;;;5033992;28;19913;-85
2020/12/10 00:12:58;;;;;;;;;;;1.30;99.90;;;;;;5033372;28;19916;-86
2020/12/10 00:15:24;;;;;;;;;;;1.30;99.90;;;;;;5034011;28;19963;-87
2020/12/10 00:17:49;;;;;;;;;;;1.30;99.90;;;;;;5034038;28;19909;-87
2020/12/10 00:20:15;;;;;;;;;;;1.20;99.90;;;;;;5034071;28;19913;-86
2020/12/10 00:22:40;;;;;;;;;;;1.20;99.90;;;;;;5035230;28;19916;-86
2020/12/10 00:25:06;;;;;;;;;;;1.20;99.90;;;;;;5034048;28;19909;-87
2020/12/10 00:27:32;;;;;;;;;;;1.20;99.90;;;;;;5033875;28;19917;-87
2020/12/10 00:29:58;;;;;;;;;;;1.20;99.90;;;;;;5033769;28;19909;-87
2020/12/10 00:32:24;;;;;;;;;;;1.30;99.90;;;;;;5033599;28;19942;-87
2020/12/10 00:34:50;;;;;;;;;;;1.30;99.90;;;;;;5035063;28;19913;-87
2020/12/10 00:37:17;;;;;;;;;;;1.30;99.90;;;;;;5033974;28;19958;-88
2020/12/10 00:39:42;;;;;;;;;;;1.30;99.90;;;;;;5034424;28;19959;-87
2020/12/10 00:42:10;;;;;;;;;;;1.30;99.90;;;;;;5033826;28;19983;-89
2020/12/10 00:44:36;;;;;;;;;;;1.30;99.90;;;;;;5033721;28;20036;-87
2020/12/10 00:47:01;;;;;;;;;;;1.20;99.90;;;;;;5033354;28;19975;-87
2020/12/10 00:49:27;;;;;;;;;;;1.20;99.90;;;;;;5033507;28;19916;-87
2020/12/10 00:51:55;;;;;;;;;;;1.20;99.90;;;;;;5033368;28;20289;-88
2020/12/10 00:54:25;;;;;;;;;;;1.20;99.90;;;;;;5033481;28;19919;-88
2020/12/10 00:56:51;;;;;;;;;;;1.30;99.90;;;;;;5033239;28;19909;-87
2020/12/10 00:59:19;;;;;;;;;;;1.30;99.90;;;;;;5033212;28;19935;-87
2020/12/10 01:01:44;;;;;;;;;;;1.20;99.90;;;;;;5033201;28;19920;-87
2020/12/10 01:04:13;;;;;;;;;;;1.30;99.90;;;;;;5033361;28;20276;-87
2020/12/10 01:06:39;;;;;;;;;;;1.30;99.90;;;;;;5033361;28;19948;-87
2020/12/10 01:09:08;;;;;;;;;;;1.40;99.90;;;;;;5033098;28;20313;-88
2020/12/10 01:11:34;;;;;;;;;;;1.40;99.90;;;;;;5033340;28;19909;-86
2020/12/10 01:14:00;;;;;;;;;;;1.40;99.90;;;;;;5032938;28;19955;-87
2020/12/10 01:16:28;;;;;;;;;;;1.40;99.90;;;;;;5034508;28;19909;-87
2020/12/10 01:18:53;;;;;;;;;;;1.40;99.90;;;;;;5032850;28;19959;-87
2020/12/10 01:21:29;;;;;;;;;;;1.30;99.90;;;;;;5032911;28;19913;-86
2020/12/10 01:23:55;;;;;;;;;;;1.30;99.90;;;;;;5032966;28;20008;-86
2020/12/10 01:26:21;;;;;;;;;;;1.20;99.90;;;;;;5032639;28;20002;-87
2020/12/10 01:28:46;;;;;;;;;;;1.20;99.90;;;;;;5032625;28;19909;-87
2020/12/10 01:31:15;;;;;;;;;;;1.30;99.90;;;;;;5033067;28;19919;-88
2020/12/10 01:33:40;;;;;;;;;;;1.30;99.90;;;;;;5032964;28;19972;-87
2020/12/10 01:36:06;;;;;;;;;;;1.30;99.90;;;;;;5032914;28;20312;-88
2020/12/10 01:38:31;;;;;;;;;;;1.30;99.90;;;;;;5032710;28;20258;-87
2020/12/10 01:40:59;;;;;;;;;;;1.30;99.90;;;;;;5033988;28;19921;-87
2020/12/10 01:43:24;;;;;;;;;;;1.40;99.90;;;;;;5032666;28;19962;-87
2020/12/10 01:45:52;;;;;;;;;;;1.40;99.90;;;;;;5032971;28;20349;-87
2020/12/10 01:48:18;;;;;;;;;;;1.40;99.90;;;;;;5032747;28;20008;-86
2020/12/10 01:50:48;;;;;;;;;;;1.40;99.90;;;;;;5032749;28;19960;-87
2020/12/10 01:53:14;;;;;;;;;;;1.40;99.90;;;;;;5032453;28;19909;-87
2020/12/10 01:55:39;;;;;;;;;;;1.40;99.90;;;;;;5032812;28;19917;-88
2020/12/10 01:58:05;;;;;;;;;;;1.40;99.90;;;;;;5032268;28;20272;-86
2020/12/10 02:00:30;;;;;;;;;;;1.40;99.90;;;;;;5032598;28;19920;-87
2020/12/10 02:02:56;;;;;;;;;;;1.50;99.90;;;;;;5032571;28;19917;-87
2020/12/10 02:05:22;;;;;;;;;;;1.40;99.90;;;;;;5032623;28;19913;-88
2020/12/10 02:07:48;;;;;;;;;;;1.40;99.90;;;;;;5032197;28;20368;-86
2020/12/10 02:10:13;;;;;;;;;;;1.40;99.90;;;;;;5032630;28;19916;-86
2020/12/10 02:12:40;;;;;;;;;;;1.50;99.90;;;;;;5032472;28;19913;-87
2020/12/10 02:15:06;;;;;;;;;;;1.40;99.90;;;;;;5032637;28;20326;-88
2020/12/10 02:17:34;;;;;;;;;;;1.40;99.90;;;;;;5033795;28;19913;-87
2020/12/10 02:20:00;;;;;;;;;;;1.40;99.90;;;;;;5033325;28;20007;-87
2020/12/10 02:22:28;;;;;;;;;;;1.40;99.90;;;;;;5032487;28;19963;-88
2020/12/10 02:24:53;;;;;;;;;;;1.40;99.90;;;;;;5032276;28;19912;-87
2020/12/10 02:27:19;;;;;;;;;;;1.40;99.90;;;;;;5032338;28;19910;-86
2020/12/10 02:29:44;;;;;;;;;;;1.40;99.90;;;;;;5032441;28;19909;-87
2020/12/10 02:32:10;;;;;;;;;;;1.40;99.90;;;;;;5032314;28;19909;-86
2020/12/10 02:34:35;;;;;;;;;;;1.40;99.90;;;;;;5032067;28;19909;-87
2020/12/10 02:37:03;;;;;;;;;;;1.30;99.90;;;;;;5034124;28;20004;-86
2020/12/10 02:39:33;;;;;;;;;;;1.40;99.90;;;;;;5035561;28;19921;-87
2020/12/10 02:41:59;;;;;;;;;;;1.30;99.90;;;;;;5036070;28;19909;-87
2020/12/10 02:44:24;;;;;;;;;;;1.30;99.90;;;;;;5035899;28;19916;-87
2020/12/10 02:46:50;;;;;;;;;;;1.40;99.90;;;;;;5035507;28;19909;-87
2020/12/10 02:49:18;;;;;;;;;;;1.30;99.90;;;;;;5035790;28;19916;-88
2020/12/10 02:51:44;;;;;;;;;;;1.30;99.90;;;;;;5035679;28;20357;-87
2020/12/10 02:54:09;;;;;;;;;;;1.40;99.90;;;;;;5035414;28;19913;-86
2020/12/10 02:56:43;;;;;;;;;;;1.40;99.90;;;;;;5035925;28;19909;-86
2020/12/10 02:59:08;;;;;;;;;;;1.40;99.90;;;;;;5035736;28;20008;-86
2020/12/10 03:01:36;;;;;;;;;;;1.40;99.90;;;;;;5036651;28;19952;-88
2020/12/10 03:04:02;;;;;;;;;;;1.30;99.90;;;;;;5035710;28;19921;-89
2020/12/10 03:06:30;;;;;;;;;;;1.40;99.90;;;;;;5035399;28;19909;-87
2020/12/10 03:08:57;;;;;;;;;;;1.30;99.90;;;;;;5036787;28;19916;-86
2020/12/10 03:11:25;;;;;;;;;;;1.30;99.90;;;;;;5035493;28;19913;-87
2020/12/10 03:13:51;;;;;;;;;;;1.30;99.90;;;;;;5035381;28;19913;-88
2020/12/10 03:16:16;;;;;;;;;;;1.30;99.90;;;;;;5035189;28;19938;-87
2020/12/10 03:18:42;;;;;;;;;;;1.40;99.90;;;;;;5035072;28;19920;-87
2020/12/10 03:21:07;;;;;;;;;;;1.40;99.90;;;;;;5035069;28;20388;-86
2020/12/10 03:23:35;;;;;;;;;;;1.40;99.90;;;;;;5035094;28;19909;-87
2020/12/10 03:26:01;;;;;;;;;;;1.30;99.90;;;;;;5035122;28;20181;-89
2020/12/10 03:28:29;;;;;;;;;;;1.30;99.90;;;;;;5034979;28;19948;-86
2020/12/10 03:30:57;;;;;;;;;;;1.30;99.90;;;;;;5035024;28;20376;-87
2020/12/10 03:33:22;;;;;;;;;;;1.30;99.90;;;;;;5035024;28;19917;-87
2020/12/10 03:35:48;;;;;;;;;;;1.30;99.90;;;;;;5034846;28;20361;-86
2020/12/10 03:38:16;;;;;;;;;;;1.30;99.90;;;;;;5035071;28;19917;-87
2020/12/10 03:40:41;;;;;;;;;;;1.30;99.90;;;;;;5034589;28;19925;-86
2020/12/10 03:43:12;;;;;;;;;;;1.30;99.90;;;;;;5034979;28;20360;-87
2020/12/10 03:45:40;;;;;;;;;;;1.30;99.90;;;;;;5034769;28;19916;-87
2020/12/10 03:48:05;;;;;;;;;;;1.40;99.90;;;;;;5034613;28;19910;-87
2020/12/10 03:50:31;;;;;;;;;;;1.40;99.90;;;;;;5034621;28;19967;-87
2020/12/10 03:52:56;;;;;;;;;;;1.30;99.90;;;;;;5034726;28;19913;-86
2020/12/10 03:55:24;;;;;;;;;;;1.30;99.90;;;;;;5034429;28;19962;-87
2020/12/10 03:57:49;;;;;;;;;;;1.30;99.90;;;;;;5034389;28;19932;-86
2020/12/10 04:00:18;;;;;;;;;;;1.30;99.90;;;;;;5035593;28;20365;-87
2020/12/10 04:02:44;;;;;;;;;;;1.30;99.90;;;;;;5034295;28;20280;-88
2020/12/10 04:05:09;;;;;;;;;;;1.30;99.90;;;;;;5034360;28;19921;-86
2020/12/10 04:07:35;;;;;;;;;;;1.30;99.90;;;;;;5034381;28;19909;-86
2020/12/10 04:10:00;;;;;;;;;;;1.20;99.90;;;;;;5034359;28;19913;-87
2020/12/10 04:12:26;;;;;;;;;;;1.20;99.90;;;;;;5034462;28;19909;-86
2020/12/10 04:14:51;;;;;;;;;;;1.20;99.90;;;;;;5034403;28;19923;-86
2020/12/10 04:17:17;;;;;;;;;;;1.30;99.90;;;;;;5031916;28;19910;-88
2020/12/10 04:19:45;;;;;;;;;;;1.30;99.90;;;;;;5024835;28;19948;-88
2020/12/10 04:22:13;;;;;;;;;;;1.30;99.90;;;;;;5024942;28;20324;-90
2020/12/10 04:24:38;;;;;;;;;;;1.40;99.90;;;;;;5024435;28;19917;-87
2020/12/10 04:27:04;;;;;;;;;;;1.40;99.90;;;;;;5014540;28;20281;-87
2020/12/10 04:29:29;;;;;;;;;;;1.30;99.90;;;;;;5014172;28;19909;-87
2020/12/10 04:31:55;;;;;;;;;;;1.30;99.90;;;;;;5013785;28;19917;-87
2020/12/10 04:34:20;;;;;;;;;;;1.40;99.90;;;;;;5014120;28;20365;-87
2020/12/10 04:36:47;;;;;;;;;;;1.30;99.90;;;;;;5013987;28;19916;-89
2020/12/10 04:39:13;;;;;;;;;;;1.30;99.90;;;;;;5013578;28;19929;-87
2020/12/10 04:41:46;;;;;;;;;;;1.30;99.90;;;;;;5014039;28;20016;-87
2020/12/10 04:44:14;;;;;;;;;;;1.30;99.90;;;;;;5014927;28;20374;-86
2020/12/10 04:46:40;;;;;;;;;;;1.30;99.90;;;;;;5013795;28;20012;-87
2020/12/10 04:49:08;;;;;;;;;;;1.30;99.90;;;;;;5013878;28;20010;-86
2020/12/10 04:51:37;;;;;;;;;;;1.30;99.90;;;;;;5014758;28;19909;-88
2020/12/10 04:54:03;;;;;;;;;;;1.30;99.90;;;;;;5013800;28;20451;-87
2020/12/10 04:56:33;;;;;;;;;;;1.30;99.90;;;;;;5013987;28;19909;-87
2020/12/10 04:59:00;;;;;;;;;;;1.30;99.90;;;;;;5013262;28;19952;-87
2020/12/10 05:01:25;;;;;;;;;;;1.30;99.90;;;;;;5013677;28;19957;-87
2020/12/10 05:03:53;;;;;;;;;;;1.30;99.90;;;;;;5013682;28;19920;-89
2020/12/10 05:06:19;;;;;;;;;;;1.30;99.90;;;;;;5013423;28;20285;-87
2020/12/10 05:08:45;;;;;;;;;;;1.40;99.90;;;;;;5013585;28;19916;-87
2020/12/10 05:11:13;;;;;;;;;;;1.30;99.90;;;;;;5013238;28;19910;-88
2020/12/10 05:13:38;;;;;;;;;;;1.30;99.90;;;;;;5014112;28;19944;-87
2020/12/10 05:16:19;;;;;;;;;;;1.40;99.90;;;;;;5013275;28;20560;-87
2020/12/10 05:18:44;;;;;;;;;;;1.30;99.90;;;;;;5013068;28;19921;-86
2020/12/10 05:21:16;;;;;;;;;;;1.30;99.90;;;;;;5013457;28;19913;-86
2020/12/10 05:23:41;;;;;;;;;;;1.30;99.90;;;;;;5013187;28;19913;-86
2020/12/10 05:26:08;;;;;;;;;;;1.30;99.90;;;;;;5013139;28;20049;-87
2020/12/10 05:28:46;;;;;;;;;;;1.30;99.90;;;;;;5013450;28;19949;-87
2020/12/10 05:31:13;;;;;;;;;;;1.40;99.90;;;;;;5013238;28;19924;-87
2020/12/10 05:33:58;;;;;;;;;;;1.40;99.90;;;;;;5014397;28;19933;-87
2020/12/10 05:36:29;;;;;;;;;;;1.30;99.90;;;;;;5012667;28;19917;-88
2020/12/10 05:39:10;;;;;;;;;;;1.30;99.90;;;;;;5012992;28;19913;-87
2020/12/10 05:41:43;;;;;;;;;;;1.30;99.90;;;;;;5012484;28;20193;-86
2020/12/10 05:44:21;;;;;;;;;;;1.30;99.90;;;;;;5013398;28;19917;-88
2020/12/10 05:46:49;;;;;;;;;;;1.30;99.90;;;;;;5013121;28;19909;-89
2020/12/10 05:49:14;;;;;;;;;;;1.30;99.90;;;;;;5013242;28;19933;-87
2020/12/10 05:51:44;;;;;;;;;;;1.40;99.90;;;;;;5013031;28;20357;-87
2020/12/10 05:54:10;;;;;;;;;;;1.40;99.90;;;;;;5012939;28;19937;-89
2020/12/10 05:56:42;;;;;;;;;;;1.40;99.90;;;;;;5012996;28;20004;-86
2020/12/10 05:59:10;;;;;;;;;;;1.40;99.90;;;;;;5012803;28;19913;-87
2020/12/10 06:01:36;;;;;;;;;;;1.40;99.90;;;;;;5012929;28;19919;-86
2020/12/10 06:04:02;;;;;;;;;;;1.40;99.90;;;;;;5013037;28;19985;-86
2020/12/10 06:06:29;;;;;;;;;;;1.40;99.90;;;;;;5012579;28;19921;-86
2020/12/10 06:09:03;;;;;;;;;;;1.40;99.90;;;;;;5012711;28;20325;-87
2020/12/10 06:11:31;;;;;;;;;;;1.40;99.90;;;;;;5014172;28;20372;-87
2020/12/10 06:14:00;;;;;;;;;;;1.40;99.90;;;;;;5016547;28;19916;-87
2020/12/10 06:16:25;;;;;;;;;;;1.40;99.90;;;;;;5016556;28;19910;-88
2020/12/10 06:19:04;;;;;;;;;;;1.30;99.90;;;;;;5016545;28;19925;-87
2020/12/10 06:21:34;;;;;;;;;;;1.30;99.90;;;;;;5016760;28;19921;-87
2020/12/10 06:24:19;;;;;;;;;;;1.30;99.90;;;;;;5016722;28;19916;-87
2020/12/10 06:26:45;;;;;;;;;;;1.30;99.90;;;;;;5015789;28;19920;-88
2020/12/10 06:29:37;;;;;;;;;;;1.30;99.90;;;;;;5019217;28;20007;-87
2020/12/10 06:32:13;;;;;;;;;;;1.30;99.90;;;;;;5024606;28;19956;-86
2020/12/10 06:34:46;;;;;;;;;;;1.30;99.90;;;;;;5024153;28;19995;-88
2020/12/10 06:37:16;;;;;;;;;;;1.30;99.90;;;;;;5024593;28;19963;-87
2020/12/10 06:39:41;;;;;;;;;;;1.30;99.90;;;;;;5025501;28;19948;-87
2020/12/10 06:42:09;;;;;;;;;;;1.30;99.90;;;;;;5026367;28;19913;-87
2020/12/10 06:44:35;;;;;;;;;;;1.30;99.90;;;;;;5026614;28;20369;-87
2020/12/10 06:47:01;;;;;;;;;;;1.30;99.90;;;;;;5025308;28;19909;-87
2020/12/10 06:49:31;;;;;;;;;;;1.30;99.90;;;;;;5022138;28;19916;-88
2020/12/10 06:52:10;;;;;;;;;;;1.30;99.90;;;;;;5026730;28;19913;-88
2020/12/10 06:54:35;;;;;;;;;;;1.30;99.90;;;;;;5026530;28;19910;-87
2020/12/10 06:57:06;;;;;;;;;;;1.40;99.90;;;;;;5018440;28;20413;-88
2020/12/10 06:59:41;;;;;;;;;;;1.30;99.90;;;;;;5021976;28;20261;-87
2020/12/10 07:02:19;;;;;;;;;;;1.40;99.90;;;;;;5051896;28;19917;-88
2020/12/10 07:04:53;;;;;;;;;;;1.40;99.90;;;;;;5035928;28;19909;-86
2020/12/10 07:07:23;;;;;;;;;;;1.30;99.90;;;;;;5035215;28;19909;-87
2020/12/10 07:09:50;;;;;;;;;;;1.30;99.90;;;;;;5024152;28;19913;-87
2020/12/10 07:12:32;;;;;;;;;;;1.30;99.90;;;;;;5026591;28;20389;-89
2020/12/10 07:15:22;;;;;;;;;;;1.30;99.90;;;;;;5024327;28;19931;-87
2020/12/10 07:17:50;;;;;;;;;;;1.30;99.90;;;;;;5025436;28;19909;-87
2020/12/10 07:20:18;;;;;;;;;;;1.40;99.90;;;;;;5023511;28;19913;-86
2020/12/10 07:22:43;;;;;;;;;;;1.40;99.90;;;;;;5024522;28;19959;-88
2020/12/10 07:25:09;;;;;;;;;;;1.30;99.90;;;;;;5022850;28;19914;-86
2020/12/10 07:27:37;;;;;;;;;;;1.30;99.90;;;;;;5024361;28;19909;-88
2020/12/10 07:30:11;;;;;;;;;;;1.30;99.90;;;;;;5025110;28;20427;-87
2020/12/10 07:32:37;;;;;;;;;;;1.30;99.90;;;;;;5025710;28;20372;-87
2020/12/10 07:35:03;;;;;;;;;;;1.30;99.90;;;;;;5022986;28;19920;-87
2020/12/10 07:37:31;;;;;;;;;;;1.30;99.90;;;;;;5025723;28;19949;-87
2020/12/10 07:40:08;;;;;;;;;;;1.40;99.90;;;;;;5020124;28;19929;-88
2020/12/10 07:42:33;;;;;;;;;;;1.40;99.90;;;;;;5015203;28;19909;-88
2020/12/10 07:45:10;;;;;;;;;;;1.50;99.90;;;;;;5014940;28;20052;-88
2020/12/10 07:47:36;;;;;;;;;;;1.50;99.90;;;;;;5031640;28;20265;-88
2020/12/10 07:50:08;;;;;;;;;;;1.50;99.90;;;;;;5023357;28;19920;-86
2020/12/10 07:52:42;;;;;;;;;;;1.40;99.90;;;;;;5023406;28;20008;-87
2020/12/10 07:55:12;;;;;;;;;;;1.40;99.90;;;;;;5026273;28;20003;-87
2020/12/10 07:57:41;;;;;;;;;;;1.50;99.90;;;;;;5023319;28;19916;-87
2020/12/10 08:00:08;;;;;;;;;;;1.50;99.90;;;;;;5023642;28;19914;-90
2020/12/10 08:02:48;;;;;;;;;;;1.50;99.90;;;;;;5025106;28;19957;-87
2020/12/10 08:05:15;;;;;;;;;;;1.50;99.90;;;;;;5048382;28;19913;-88
2020/12/10 08:07:47;;;;;;;;;;;1.50;99.90;;;;;;5034435;28;19948;-87
2020/12/10 08:10:24;;;;;;;;;;;1.50;99.90;;;;;;5034481;28;19916;-87
2020/12/10 08:13:09;;;;;;;;;;;1.50;99.90;;;;;;5034046;28;19916;-87
2020/12/10 08:15:34;;;;;;;;;;;1.60;99.90;;;;;;5034501;28;19952;-88
2020/12/10 08:18:07;;;;;;;;;;;1.60;99.90;;;;;;5034494;28;19909;-87
2020/12/10 08:20:36;;;;;;;;;;;1.60;99.90;;;;;;5034106;28;19913;-87
2020/12/10 08:23:02;;;;;;;;;;;1.60;99.90;;;;;;5034069;28;19917;-89
2020/12/10 08:25:27;;;;;;;;;;;1.60;99.90;;;;;;5023790;28;19920;-88
2020/12/10 08:27:53;;;;;;;;;;;1.60;99.90;;;;;;5015296;28;19909;-86
2020/12/10 08:30:19;;;;;;;;;;;1.60;99.90;;;;;;5014312;28;20361;-87
2020/12/10 08:32:51;;;;;;;;;;;1.60;99.90;;;;;;5014160;28;19975;-87
2020/12/10 08:35:17;;;;;;;;;;;1.70;99.90;;;;;;5013286;28;19914;-86
2020/12/10 08:37:43;;;;;;;;;;;1.70;99.90;;;;;;5014933;28;19913;-87
2020/12/10 08:40:12;;;;;;;;;;;1.70;99.90;;;;;;5013769;28;19921;-87
2020/12/10 08:42:40;;;;;;;;;;;1.70;99.90;;;;;;5013970;28;19917;-87
2020/12/10 08:45:06;;;;;;;;;;;1.80;99.90;;;;;;5014047;28;19916;-89
2020/12/10 08:47:32;;;;;;;;;;;1.70;99.90;;;;;;5013783;28;20281;-88
2020/12/10 08:50:23;;;;;;;;;;;1.80;99.90;;;;;;5019159;28;20368;-87
2020/12/10 08:52:58;;;;;;;;;;;1.70;99.90;;;;;;5023606;28;20361;-86
2020/12/10 08:55:24;;;;;;;;;;;1.80;99.90;;;;;;5039259;28;20364;-86
2020/12/10 08:57:50;;;;;;;;;;;1.80;99.90;;;;;;5020144;28;20004;-87
2020/12/10 09:00:16;;;;;;;;;;;1.80;99.90;;;;;;5013646;28;20120;-87
2020/12/10 09:02:47;;;;;;;;;;;1.90;99.90;;;;;;5013881;28;20155;-87
2020/12/10 09:05:12;;;;;;;;;;;1.90;99.90;;;;;;5013606;28;19910;-87
2020/12/10 09:07:38;;;;;;;;;;;1.90;99.90;;;;;;5013508;28;19916;-86
2020/12/10 09:10:06;;;;;;;;;;;1.80;99.90;;;;;;5012997;28;20008;-87
2020/12/10 09:12:32;;;;;;;;;;;1.90;99.90;;;;;;5013299;28;20008;-86
2020/12/10 09:14:57;;;;;;;;;;;1.90;99.90;;;;;;5013310;28;19979;-87
2020/12/10 09:17:23;;;;;;;;;;;1.90;99.90;;;;;;5013283;28;19916;-86
2020/12/10 09:19:53;;;;;;;;;;;1.90;99.90;;;;;;5024041;28;20348;-86
2020/12/10 09:22:19;;;;;;;;;;;2.00;99.90;;;;;;5026517;28;19917;-87
2020/12/10 09:24:44;;;;;;;;;;;2.00;99.90;;;;;;5026980;28;19963;-87
2020/12/10 09:27:10;;;;;;;;;;;2.00;99.90;;;;;;5027937;28;19964;-87
2020/12/10 09:29:38;;;;;;;;;;;2.00;99.90;;;;;;5014547;28;19910;-86
2020/12/10 09:32:06;;;;;;;;;;;1.90;99.90;;;;;;5020715;28;19928;-87
2020/12/10 09:34:31;;;;;;;;;;;2.00;99.90;;;;;;5021916;28;19920;-87
2020/12/10 09:36:58;;;;;;;;;;;2.00;99.90;;;;;;5022760;28;19909;-86
2020/12/10 09:39:26;;;;;;;;;;;2.00;99.90;;;;;;5020688;28;20285;-86
2020/12/10 09:41:54;;;;;;;;;;;2.10;99.90;;;;;;5018460;28;20008;-87
2020/12/10 09:44:22;;;;;;;;;;;2.00;99.90;;;;;;5013979;28;19910;-87
2020/12/10 09:46:50;;;;;;;;;;;2.10;99.90;;;;;;5012792;28;19913;-86
2020/12/10 09:49:20;;;;;;;;;;;2.10;99.90;;;;;;5013079;28;19909;-87
2020/12/10 09:51:56;;;;;;;;;;;2.10;99.90;;;;;;5013040;28;19968;-86
2020/12/10 09:59:35;;;;;;;;;;;2.30;99.90;;;;;;5013963;28;19913;-86
2020/12/10 10:02:06;;;;;;;;;;;2.20;99.90;;;;;;5012640;28;20259;-86
2020/12/10 10:04:34;;;;;;;;;;;2.20;99.90;;;;;;5013007;28;19920;-88
2020/12/10 10:06:59;;;;;;;;;;;2.30;99.90;;;;;;5012764;28;19945;-87
2020/12/10 10:09:28;;;;;;;;;;;2.30;99.90;;;;;;5012612;28;19917;-87
2020/12/10 10:11:58;;;;;;;;;;;2.30;99.90;;;;;;5012995;28;19917;-86
2020/12/10 10:14:24;;;;;;;;;;;2.30;99.90;;;;;;5013024;28;20361;-87
2020/12/10 10:16:54;;;;;;;;;;;2.30;99.90;;;;;;5013004;28;19945;-86
2020/12/10 10:19:19;;;;;;;;;;;2.40;99.90;;;;;;5012656;28;19941;-86
2020/12/10 10:21:47;;;;;;;;;;;2.40;99.90;;;;;;5012754;28;20385;-86
2020/12/10 10:24:13;;;;;;;;;;;2.40;99.90;;;;;;5012268;28;19910;-87
2020/12/10 10:26:41;;;;;;;;;;;2.40;99.90;;;;;;5012767;28;20320;-87
2020/12/10 10:29:08;;;;;;;;;;;2.40;99.90;;;;;;5012883;28;19909;-87
2020/12/10 10:31:36;;;;;;;;;;;2.50;99.90;;;;;;5012574;28;19909;-87
2020/12/10 10:34:01;;;;;;;;;;;2.50;99.90;;;;;;5012340;28;20000;-86
2020/12/10 10:36:32;;;;;;;;;;;2.50;99.90;;;;;;5012660;28;20336;-87
2020/12/10 10:38:57;;;;;;;;;;;2.50;99.90;;;;;;5012388;28;19920;-87
2020/12/10 10:41:23;;;;;;;;;;;2.50;99.90;;;;;;5012365;28;20273;-86
2020/12/10 10:43:48;;;;;;;;;;;2.50;99.90;;;;;;5012349;28;19969;-87
2020/12/10 10:46:18;;;;;;;;;;;2.50;99.90;;;;;;5012492;28;19909;-87
2020/12/10 10:48:43;;;;;;;;;;;2.60;99.90;;;;;;5012366;28;19916;-87
2020/12/10 10:51:11;;;;;;;;;;;2.70;99.90;;;;;;5012626;28;20309;-88
2020/12/10 10:53:39;;;;;;;;;;;2.60;99.90;;;;;;5012547;28;19916;-87
2020/12/10 10:56:04;;;;;;;;;;;2.60;99.90;;;;;;5012352;28;19983;-87
2020/12/10 10:58:30;;;;;;;;;;;2.60;99.90;;;;;;5014926;28;19909;-86
2020/12/10 11:00:58;;;;;;;;;;;2.70;99.90;;;;;;5015776;28;20282;-86
2020/12/10 11:03:23;;;;;;;;;;;2.80;99.90;;;;;;5016026;28;19909;-88
2020/12/10 11:05:49;;;;;;;;;;;2.80;99.90;;;;;;5015646;28;19959;-87
2020/12/10 11:08:15;;;;;;;;;;;2.80;99.90;;;;;;5015839;28;20004;-87
2020/12/10 11:10:40;;;;;;;;;;;2.80;99.90;;;;;;5015490;28;20075;-87
2020/12/10 11:13:06;;;;;;;;;;;2.90;99.90;;;;;;5015504;28;19916;-86
2020/12/10 11:15:31;;;;;;;;;;;2.90;99.90;;;;;;5015617;28;19920;-86
2020/12/10 11:17:57;;;;;;;;;;;2.90;99.90;;;;;;5015564;28;19910;-86
2020/12/10 11:20:23;;;;;;;;;;;2.90;99.90;;;;;;5015051;28;19914;-87
2020/12/10 11:22:48;;;;;;;;;;;2.90;99.90;;;;;;5015554;28;19921;-86
2020/12/10 11:25:14;;;;;;;;;;;2.90;99.90;;;;;;5015512;28;19909;-86
2020/12/10 11:27:40;;;;;;;;;;;2.90;99.90;;;;;;5015348;28;19956;-86
2020/12/10 11:30:05;;;;;;;;;;;2.90;99.90;;;;;;5015272;28;19910;-86
2020/12/10 11:32:31;;;;;;;;;;;2.90;99.90;;;;;;5015438;28;19917;-86
2020/12/10 11:34:59;;;;;;;;;;;2.90;99.90;;;;;;5015431;28;20005;-86
2020/12/10 11:37:27;;;;;;;;;;;2.90;99.90;;;;;;5015120;28;19918;-87
2020/12/10 11:39:54;;;;;;;;;;;2.90;99.90;;;;;;5014889;28;19960;-87
2020/12/10 11:42:23;;;;;;;;;;;2.90;99.90;;;;;;5015032;28;19913;-86
2020/12/10 11:44:50;;;;;;;;;;;2.90;99.90;;;;;;5014778;28;19917;-87
2020/12/10 11:47:16;;;;;;;;;;;3.00;99.90;;;;;;5014780;28;19916;-86
2020/12/10 11:49:49;;;;;;;;;;;2.90;99.90;;;;;;5015981;28;19909;-87
2020/12/10 11:52:22;;;;;;;;;;;3.00;99.90;;;;;;5015979;28;19979;-87
2020/12/10 11:54:49;;;;;;;;;;;3.00;99.90;;;;;;5014751;28;19917;-86
2020/12/10 11:57:15;;;;;;;;;;;3.00;99.90;;;;;;5015073;28;19917;-85
2020/12/10 11:59:40;;;;;;;;;;;3.10;99.90;;;;;;5014632;28;19918;-86
2020/12/10 12:02:09;;;;;;;;;;;3.10;99.90;;;;;;5014710;28;19913;-88
2020/12/10 12:04:35;;;;;;;;;;;3.00;99.90;;;;;;5014871;28;20401;-87
2020/12/10 12:07:04;;;;;;;;;;;3.00;99.90;;;;;;5014716;28;19910;-87
2020/12/10 12:09:31;;;;;;;;;;;3.00;99.90;;;;;;5013773;28;19917;-86
2020/12/10 12:11:59;;;;;;;;;;;3.00;99.90;;;;;;5014602;28;20024;-88
2020/12/10 12:14:25;;;;;;;;;;;3.00;99.90;;;;;;5014290;28;19909;-84
2020/12/10 12:16:53;;;;;;;;;;;3.00;99.90;;;;;;5014631;28;19920;-87
2020/12/10 12:19:21;;;;;;;;;;;3.00;99.90;;;;;;5014518;28;19967;-88
2020/12/10 12:21:49;;;;;;;;;;;3.00;99.90;;;;;;5014608;28;19991;-87
2020/12/10 12:24:14;;;;;;;;;;;3.00;99.90;;;;;;5014158;28;19910;-87
2020/12/10 12:26:40;;;;;;;;;;;3.00;99.90;;;;;;5014163;28;20415;-87
2020/12/10 12:29:05;;;;;;;;;;;2.90;99.90;;;;;;5014048;28;19996;-86
2020/12/10 12:31:35;;;;;;;;;;;2.90;99.90;;;;;;5014173;28;19917;-88
2020/12/10 12:34:01;;;;;;;;;;;3.00;99.90;;;;;;5014262;28;19914;-87
2020/12/10 12:36:27;;;;;;;;;;;3.00;99.90;;;;;;5014191;28;20304;-86
2020/12/10 12:38:55;;;;;;;;;;;3.00;99.90;;;;;;5013765;28;19991;-87
2020/12/10 12:41:25;;;;;;;;;;;2.90;99.90;;;;;;5014252;28;19963;-86
2020/12/10 12:43:50;;;;;;;;;;;3.00;99.90;;;;;;5014235;28;19909;-87
2020/12/10 12:46:16;;;;;;;;;;;3.00;99.90;;;;;;5013989;28;20476;-87
2020/12/10 12:48:42;;;;;;;;;;;3.00;99.90;;;;;;5013842;28;19919;-88
2020/12/10 12:51:07;;;;;;;;;;;3.00;99.90;;;;;;5013891;28;19914;-85
2020/12/10 12:53:33;;;;;;;;;;;3.00;99.90;;;;;;5013817;28;19945;-88
2020/12/10 12:55:58;;;;;;;;;;;2.90;99.90;;;;;;5013695;28;19914;-85
2020/12/10 12:58:24;;;;;;;;;;;2.90;99.90;;;;;;5013378;28;20288;-88
2020/12/10 13:00:50;;;;;;;;;;;3.00;99.90;;;;;;5013682;28;19918;-85
2020/12/10 13:03:15;;;;;;;;;;;3.00;99.90;;;;;;5013552;28;19909;-85
2020/12/10 13:05:41;;;;;;;;;;;3.00;99.90;;;;;;5013617;28;19920;-87
2020/12/10 13:08:08;;;;;;;;;;;3.00;99.90;;;;;;5013871;28;20016;-86
2020/12/10 13:10:33;;;;;;;;;;;2.90;99.90;;;;;;5013467;28;19963;-87
2020/12/10 13:12:59;;;;;;;;;;;3.00;99.90;;;;;;5013225;28;20319;-87
2020/12/10 13:15:27;;;;;;;;;;;3.00;99.90;;;;;;5013528;28;19921;-87
2020/12/10 13:17:55;;;;;;;;;;;3.00;99.90;;;;;;5013204;28;19910;-87
2020/12/10 13:20:23;;;;;;;;;;;3.00;99.90;;;;;;5012855;28;19921;-86
2020/12/10 13:22:49;;;;;;;;;;;3.00;99.90;;;;;;5013318;28;20008;-87
2020/12/10 13:25:14;;;;;;;;;;;3.00;99.90;;;;;;5013255;28;19936;-87
2020/12/10 13:27:42;;;;;;;;;;;3.00;99.90;;;;;;5013300;28;19914;-87
2020/12/10 13:30:10;;;;;;;;;;;3.00;99.90;;;;;;5013052;28;19957;-87
2020/12/10 13:32:36;;;;;;;;;;;2.90;99.90;;;;;;5013136;28;19909;-86
2020/12/10 13:35:04;;;;;;;;;;;2.90;99.90;;;;;;5013188;28;20321;-86
2020/12/10 13:37:29;;;;;;;;;;;2.90;99.90;;;;;;5012981;28;19965;-86
2020/12/10 13:39:57;;;;;;;;;;;2.90;99.90;;;;;;5012820;28;19967;-87
2020/12/10 13:42:23;;;;;;;;;;;3.00;99.90;;;;;;5014167;28;19932;-86
2020/12/10 13:44:51;;;;;;;;;;;3.00;99.90;;;;;;5012978;28;19968;-86
2020/12/10 13:47:17;;;;;;;;;;;3.00;99.90;;;;;;5013013;28;19992;-86
2020/12/10 13:49:43;;;;;;;;;;;3.00;99.90;;;;;;5013193;28;20357;-87
2020/12/10 13:52:08;;;;;;;;;;;2.90;99.90;;;;;;5012944;28;19909;-87
2020/12/10 13:54:36;;;;;;;;;;;2.90;99.90;;;;;;5012840;28;20280;-86
2020/12/10 13:57:03;;;;;;;;;;;2.90;99.90;;;;;;5012981;28;19920;-87
2020/12/10 13:59:28;;;;;;;;;;;2.90;99.90;;;;;;5012679;28;19913;-86
2020/12/10 14:01:56;;;;;;;;;;;2.90;99.90;;;;;;5012868;28;20384;-87
2020/12/10 14:04:24;;;;;;;;;;;2.90;99.90;;;;;;5012977;28;19936;-86
2020/12/10 14:06:53;;;;;;;;;;;2.90;99.90;;;;;;5012576;28;19950;-88
2020/12/10 14:09:18;;;;;;;;;;;2.90;99.90;;;;;;5012773;28;19917;-87
2020/12/10 14:11:44;;;;;;;;;;;2.90;99.90;;;;;;5012867;28;20353;-89
2020/12/10 14:14:10;;;;;;;;;;;2.90;99.90;;;;;;5012629;28;20364;-87
2020/12/10 14:16:39;;;;;;;;;;;2.90;99.90;;;;;;5012709;28;19910;-88
2020/12/10 14:19:08;;;;;;;;;;;2.90;99.90;;;;;;5012874;28;19941;-88
2020/12/10 14:21:36;;;;;;;;;;;2.90;99.90;;;;;;5012517;28;20011;-87
2020/12/10 14:24:01;;;;;;;;;;;2.90;99.90;;;;;;5012780;28;19914;-87
2020/12/10 14:26:29;;;;;;;;;;;2.90;99.90;;;;;;5013992;28;20353;-87
2020/12/10 14:28:55;;;;;;;;;;;2.90;99.90;;;;;;5012452;28;19964;-87
2020/12/10 14:31:21;;;;;;;;;;;2.90;99.90;;;;;;5012369;28;19933;-87
2020/12/10 14:33:46;;;;;;;;;;;2.90;99.90;;;;;;5015764;28;19910;-86
2020/12/10 14:36:12;;;;;;;;;;;2.90;99.90;;;;;;5016201;28;20372;-87
2020/12/10 14:38:38;;;;;;;;;;;2.90;99.90;;;;;;5016245;28;20016;-87